sensor_id;sensor_type;location;lat;lon;timestamp;pressure;altitude;pressure_sealevel;temperature;humidity
50226;BME280;36113;50.742;6.432;2023-02-18T00:00:52;147166.97;;;8.87;100.00
50226;BME280;36113;50.742;6.432;2023-02-18T00:03:17;147146.94;;;8.79;100.00
50226;BME280;36113;50.742;6.432;2023-02-18T00:05:42;147083.16;;;8.53;100.00
50226;BME280;36113;50.742;6.432;2023-02-18T00:08:08;147163.22;;;8.86;100.00
50226;BME280;36113;50.742;6.432;2023-02-18T00:10:33;147133.19;;;8.73;100.00
50226;BME280;36113;50.742;6.432;2023-02-18T00:12:58;147176.94;;;8.91;100.00
50226;BME280;36113;50.742;6.432;2023-02-18T00:15:25;147145.66;;;8.78;100.00
50226;BME280;36113;50.742;6.432;2023-02-18T00:17:50;147161.91;;;8.85;100.00
50226;BME280;36113;50.742;6.432;2023-02-18T00:20:16;147163.22;;;8.86;100.00
50226;BME280;36113;50.742;6.432;2023-02-18T00:22:41;147140.66;;;8.76;100.00
50226;BME280;36113;50.742;6.432;2023-02-18T00:25:07;147155.69;;;8.82;100.00
50226;BME280;36113;50.742;6.432;2023-02-18T00:27:32;147111.88;;;8.64;100.00
50226;BME280;36113;50.742;6.432;2023-02-18T00:29:57;147138.19;;;8.75;100.00
50226;BME280;36113;50.742;6.432;2023-02-18T00:32:23;147166.97;;;8.87;100.00
50226;BME280;36113;50.742;6.432;2023-02-18T00:34:48;147080.63;;;8.52;100.00
50226;BME280;36113;50.742;6.432;2023-02-18T00:37:13;147178.19;;;8.92;100.00
50226;BME280;36113;50.742;6.432;2023-02-18T00:39:39;147165.69;;;8.87;100.00
50226;BME280;36113;50.742;6.432;2023-02-18T00:42:04;147175.72;;;8.91;100.00
50226;BME280;36113;50.742;6.432;2023-02-18T00:44:29;147121.91;;;8.69;100.00
50226;BME280;36113;50.742;6.432;2023-02-18T00:46:55;147163.22;;;8.86;100.00
50226;BME280;36113;50.742;6.432;2023-02-18T00:49:20;147164.44;;;8.86;100.00
50226;BME280;36113;50.742;6.432;2023-02-18T00:51:45;147184.47;;;8.94;100.00
50226;BME280;36113;50.742;6.432;2023-02-18T00:54:11;147155.69;;;8.82;100.00
50226;BME280;36113;50.742;6.432;2023-02-18T00:56:36;147161.91;;;8.85;100.00
50226;BME280;36113;50.742;6.432;2023-02-18T00:59:01;147148.16;;;8.79;100.00
50226;BME280;36113;50.742;6.432;2023-02-18T01:01:27;147179.47;;;8.92;100.00
50226;BME280;36113;50.742;6.432;2023-02-18T01:03:52;147174.44;;;8.90;100.00
50226;BME280;36113;50.742;6.432;2023-02-18T01:06:18;147159.44;;;8.84;100.00
50226;BME280;36113;50.742;6.432;2023-02-18T01:08:43;147174.44;;;8.90;100.00
50226;BME280;36113;50.742;6.432;2023-02-18T01:11:10;147161.91;;;8.85;100.00
50226;BME280;36113;50.742;6.432;2023-02-18T01:13:35;147160.69;;;8.85;100.00
50226;BME280;36113;50.742;6.432;2023-02-18T01:16:01;147173.19;;;8.90;100.00
50226;BME280;36113;50.742;6.432;2023-02-18T01:18:26;147171.97;;;8.89;100.00
50226;BME280;36113;50.742;6.432;2023-02-18T01:20:52;147125.69;;;8.70;100.00
50226;BME280;36113;50.742;6.432;2023-02-18T01:23:17;147174.44;;;8.90;100.00
50226;BME280;36113;50.742;6.432;2023-02-18T01:25:43;147141.94;;;8.77;100.00
50226;BME280;36113;50.742;6.432;2023-02-18T01:28:11;147136.91;;;8.75;100.00
50226;BME280;36113;50.742;6.432;2023-02-18T01:30:37;147139.44;;;8.76;100.00
50226;BME280;36113;50.742;6.432;2023-02-18T01:33:02;147144.41;;;8.78;100.00
50226;BME280;36113;50.742;6.432;2023-02-18T01:35:28;147173.19;;;8.90;100.00
50226;BME280;36113;50.742;6.432;2023-02-18T01:37:53;147139.44;;;8.76;100.00
50226;BME280;36113;50.742;6.432;2023-02-18T01:40:22;147191.97;;;8.97;100.00
50226;BME280;36113;50.742;6.432;2023-02-18T01:42:49;147155.69;;;8.82;100.00
50226;BME280;36113;50.742;6.432;2023-02-18T01:48:10;147204.50;;;9.03;100.00
50226;BME280;36113;50.742;6.432;2023-02-18T01:50:52;147213.25;;;9.06;100.00
50226;BME280;36113;50.742;6.432;2023-02-18T01:53:28;147210.72;;;9.05;100.00
50226;BME280;36113;50.742;6.432;2023-02-18T01:55:56;147183.19;;;8.94;100.00
50226;BME280;36113;50.742;6.432;2023-02-18T01:58:22;147220.72;;;9.09;100.00
50226;BME280;36113;50.742;6.432;2023-02-18T02:00:48;147211.97;;;9.06;100.00
50226;BME280;36113;50.742;6.432;2023-02-18T02:03:13;147205.72;;;9.03;100.00
50226;BME280;36113;50.742;6.432;2023-02-18T02:05:39;147164.44;;;8.86;100.00
50226;BME280;36113;50.742;6.432;2023-02-18T02:08:04;147201.97;;;9.01;100.00
50226;BME280;36113;50.742;6.432;2023-02-18T02:10:57;147200.75;;;9.01;100.00
50226;BME280;36113;50.742;6.432;2023-02-18T02:18:55;147149.41;;;8.80;100.00
50226;BME280;36113;50.742;6.432;2023-02-18T02:21:47;147218.25;;;9.08;100.00
50226;BME280;36113;50.742;6.432;2023-02-18T02:30:00;147201.97;;;9.01;100.00
50226;BME280;36113;50.742;6.432;2023-02-18T02:37:56;147203.22;;;9.02;100.00
50226;BME280;36113;50.742;6.432;2023-02-18T02:45:53;147159.44;;;8.84;100.00
50226;BME280;36113;50.742;6.432;2023-02-18T02:54:26;147151.94;;;8.81;100.00
50226;BME280;36113;50.742;6.432;2023-02-18T02:59:40;147168.19;;;8.88;100.00
50226;BME280;36113;50.742;6.432;2023-02-18T03:08:08;147164.44;;;8.86;100.00
50226;BME280;36113;50.742;6.432;2023-02-18T03:13:50;147208.22;;;9.04;100.00
50226;BME280;36113;50.742;6.432;2023-02-18T03:16:34;147188.22;;;8.96;100.00
50226;BME280;36113;50.742;6.432;2023-02-18T03:19:07;147189.47;;;8.96;100.00
50226;BME280;36113;50.742;6.432;2023-02-18T03:21:42;147189.47;;;8.96;100.00
50226;BME280;36113;50.742;6.432;2023-02-18T03:25:00;147111.88;;;8.64;100.00
50226;BME280;36113;50.742;6.432;2023-02-18T03:27:20;147171.97;;;8.89;100.00
50226;BME280;36113;50.742;6.432;2023-02-18T03:29:51;147129.44;;;8.72;100.00
50226;BME280;36113;50.742;6.432;2023-02-18T03:32:21;147156.94;;;8.83;100.00
50226;BME280;36113;50.742;6.432;2023-02-18T03:34:50;147156.94;;;8.83;100.00
50226;BME280;36113;50.742;6.432;2023-02-18T03:37:18;147161.91;;;8.85;100.00
50226;BME280;36113;50.742;6.432;2023-02-18T03:39:47;147153.16;;;8.81;100.00
50226;BME280;36113;50.742;6.432;2023-02-18T03:42:15;147148.16;;;8.79;100.00
50226;BME280;36113;50.742;6.432;2023-02-18T03:44:40;147158.16;;;8.83;100.00
50226;BME280;36113;50.742;6.432;2023-02-18T03:47:05;147111.88;;;8.64;100.00
50226;BME280;36113;50.742;6.432;2023-02-18T03:49:31;147111.88;;;8.64;100.00
50226;BME280;36113;50.742;6.432;2023-02-18T03:51:56;147121.91;;;8.69;100.00
50226;BME280;36113;50.742;6.432;2023-02-18T03:54:21;147150.69;;;8.80;100.00
50226;BME280;36113;50.742;6.432;2023-02-18T03:56:47;147111.88;;;8.64;100.00
50226;BME280;36113;50.742;6.432;2023-02-18T03:59:12;147116.94;;;8.67;100.00
50226;BME280;36113;50.742;6.432;2023-02-18T04:01:38;147124.38;;;8.70;100.00
50226;BME280;36113;50.742;6.432;2023-02-18T04:04:04;147116.94;;;8.67;100.00
50226;BME280;36113;50.742;6.432;2023-02-18T04:06:29;147081.88;;;8.52;100.00
50226;BME280;36113;50.742;6.432;2023-02-18T04:08:55;147135.66;;;8.74;100.00
50226;BME280;36113;50.742;6.432;2023-02-18T04:11:20;147115.66;;;8.66;100.00
50226;BME280;36113;50.742;6.432;2023-02-18T04:13:45;147083.16;;;8.53;100.00
50226;BME280;36113;50.742;6.432;2023-02-18T04:16:11;147121.91;;;8.69;100.00
50226;BME280;36113;50.742;6.432;2023-02-18T04:18:37;147094.38;;;8.57;100.00
50226;BME280;36113;50.742;6.432;2023-02-18T04:21:02;147069.38;;;8.47;100.00
50226;BME280;36113;50.742;6.432;2023-02-18T04:23:27;147108.19;;;8.63;100.00
50226;BME280;36113;50.742;6.432;2023-02-18T04:25:53;147115.66;;;8.66;100.00
50226;BME280;36113;50.742;6.432;2023-02-18T04:28:18;147114.41;;;8.66;100.00
50226;BME280;36113;50.742;6.432;2023-02-18T04:30:45;147066.91;;;8.46;100.00
50226;BME280;36113;50.742;6.432;2023-02-18T04:33:10;147086.88;;;8.54;100.00
50226;BME280;36113;50.742;6.432;2023-02-18T04:35:36;147123.16;;;8.69;100.00
50226;BME280;36113;50.742;6.432;2023-02-18T04:38:02;147113.16;;;8.65;100.00
50226;BME280;36113;50.742;6.432;2023-02-18T04:40:28;147104.41;;;8.61;100.00
50226;BME280;36113;50.742;6.432;2023-02-18T04:42:56;147130.66;;;8.72;100.00
50226;BME280;36113;50.742;6.432;2023-02-18T04:45:22;147106.91;;;8.62;100.00
50226;BME280;36113;50.742;6.432;2023-02-18T04:47:47;147131.91;;;8.73;100.00
50226;BME280;36113;50.742;6.432;2023-02-18T04:50:12;147118.16;;;8.67;100.00
50226;BME280;36113;50.742;6.432;2023-02-18T04:52:38;147070.66;;;8.48;100.00
50226;BME280;36113;50.742;6.432;2023-02-18T04:55:03;147064.38;;;8.45;100.00
50226;BME280;36113;50.742;6.432;2023-02-18T04:57:28;147089.38;;;8.55;100.00
50226;BME280;36113;50.742;6.432;2023-02-18T04:59:54;147110.66;;;8.64;100.00
50226;BME280;36113;50.742;6.432;2023-02-18T05:02:19;147071.88;;;8.48;100.00
50226;BME280;36113;50.742;6.432;2023-02-18T05:04:44;147124.38;;;8.70;100.00
50226;BME280;36113;50.742;6.432;2023-02-18T05:07:10;147069.38;;;8.47;100.00
50226;BME280;36113;50.742;6.432;2023-02-18T05:09:35;147076.88;;;8.50;100.00
50226;BME280;36113;50.742;6.432;2023-02-18T05:12:00;147119.41;;;8.68;100.00
50226;BME280;36113;50.742;6.432;2023-02-18T05:14:26;147108.19;;;8.63;100.00
50226;BME280;36113;50.742;6.432;2023-02-18T05:16:51;147098.13;;;8.59;100.00
50226;BME280;36113;50.742;6.432;2023-02-18T05:19:17;147108.19;;;8.63;100.00
50226;BME280;36113;50.742;6.432;2023-02-18T05:21:43;147078.13;;;8.51;100.00
50226;BME280;36113;50.742;6.432;2023-02-18T05:24:08;147116.94;;;8.67;100.00
50226;BME280;36113;50.742;6.432;2023-02-18T05:26:34;147126.91;;;8.71;100.00
50226;BME280;36113;50.742;6.432;2023-02-18T05:28:59;147115.66;;;8.66;100.00
50226;BME280;36113;50.742;6.432;2023-02-18T05:31:25;147108.19;;;8.63;100.00
50226;BME280;36113;50.742;6.432;2023-02-18T05:33:50;147124.38;;;8.70;100.00
50226;BME280;36113;50.742;6.432;2023-02-18T05:36:15;147116.94;;;8.67;100.00
50226;BME280;36113;50.742;6.432;2023-02-18T05:38:41;147114.41;;;8.66;100.00
50226;BME280;36113;50.742;6.432;2023-02-18T05:41:06;147115.66;;;8.66;100.00
50226;BME280;36113;50.742;6.432;2023-02-18T05:43:31;147125.69;;;8.70;100.00
50226;BME280;36113;50.742;6.432;2023-02-18T05:46:17;147136.91;;;8.75;100.00
50226;BME280;36113;50.742;6.432;2023-02-18T05:48:42;147135.66;;;8.74;100.00
50226;BME280;36113;50.742;6.432;2023-02-18T05:51:07;147130.66;;;8.72;100.00
50226;BME280;36113;50.742;6.432;2023-02-18T05:53:32;147109.41;;;8.63;100.00
50226;BME280;36113;50.742;6.432;2023-02-18T05:55:58;147081.88;;;8.52;100.00
50226;BME280;36113;50.742;6.432;2023-02-18T05:58:23;147111.88;;;8.64;100.00
50226;BME280;36113;50.742;6.432;2023-02-18T06:00:48;147109.41;;;8.63;100.00
50226;BME280;36113;50.742;6.432;2023-02-18T06:03:14;147076.88;;;8.50;100.00
50226;BME280;36113;50.742;6.432;2023-02-18T06:05:39;147085.63;;;8.54;100.00
50226;BME280;36113;50.742;6.432;2023-02-18T06:08:04;147108.19;;;8.63;100.00
50226;BME280;36113;50.742;6.432;2023-02-18T06:10:29;147114.41;;;8.66;100.00
50226;BME280;36113;50.742;6.432;2023-02-18T06:12:55;147081.88;;;8.52;100.00
50226;BME280;36113;50.742;6.432;2023-02-18T06:15:20;147106.91;;;8.62;100.00
50226;BME280;36113;50.742;6.432;2023-02-18T06:17:45;147105.66;;;8.62;100.00
50226;BME280;36113;50.742;6.432;2023-02-18T06:20:11;147060.63;;;8.43;100.00
50226;BME280;36113;50.742;6.432;2023-02-18T06:22:36;147086.88;;;8.54;100.00
50226;BME280;36113;50.742;6.432;2023-02-18T06:25:02;147061.84;;;8.44;100.00
50226;BME280;36113;50.742;6.432;2023-02-18T06:27:27;147073.13;;;8.49;100.00
50226;BME280;36113;50.742;6.432;2023-02-18T06:29:52;147086.88;;;8.54;100.00
50226;BME280;36113;50.742;6.432;2023-02-18T06:32:18;147075.66;;;8.50;100.00
50226;BME280;36113;50.742;6.432;2023-02-18T06:34:43;147038.09;;;8.34;100.00
50226;BME280;36113;50.742;6.432;2023-02-18T06:37:08;147058.16;;;8.42;100.00
50226;BME280;36113;50.742;6.432;2023-02-18T06:39:33;147059.38;;;8.43;100.00
50226;BME280;36113;50.742;6.432;2023-02-18T06:41:59;147048.06;;;8.38;100.00
50226;BME280;36113;50.742;6.432;2023-02-18T06:44:24;147049.31;;;8.39;100.00
50226;BME280;36113;50.742;6.432;2023-02-18T06:46:49;147028.06;;;8.30;100.00
50226;BME280;36113;50.742;6.432;2023-02-18T06:49:15;147023.06;;;8.28;100.00
50226;BME280;36113;50.742;6.432;2023-02-18T06:51:40;147065.63;;;8.45;100.00
50226;BME280;36113;50.742;6.432;2023-02-18T06:54:05;147064.38;;;8.45;100.00
50226;BME280;36113;50.742;6.432;2023-02-18T06:56:31;147039.31;;;8.35;100.00
50226;BME280;36113;50.742;6.432;2023-02-18T06:58:56;147055.56;;;8.41;100.00
50226;BME280;36113;50.742;6.432;2023-02-18T07:01:22;147056.81;;;8.42;100.00
50226;BME280;36113;50.742;6.432;2023-02-18T07:03:47;147015.53;;;8.25;100.00
50226;BME280;36113;50.742;6.432;2023-02-18T07:06:12;147056.81;;;8.42;100.00
50226;BME280;36113;50.742;6.432;2023-02-18T07:08:38;147023.06;;;8.28;100.00
50226;BME280;36113;50.742;6.432;2023-02-18T07:11:03;147004.31;;;8.20;100.00
50226;BME280;36113;50.742;6.432;2023-02-18T07:13:28;147054.34;;;8.41;100.00
50226;BME280;36113;50.742;6.432;2023-02-18T07:15:54;147055.56;;;8.41;100.00
50226;BME280;36113;50.742;6.432;2023-02-18T07:18:19;147034.31;;;8.33;100.00
50226;BME280;36113;50.742;6.432;2023-02-18T07:20:44;147016.81;;;8.25;100.00
50226;BME280;36113;50.742;6.432;2023-02-18T07:23:10;147043.06;;;8.36;100.00
50226;BME280;36113;50.742;6.432;2023-02-18T07:25:35;147043.06;;;8.36;100.00
50226;BME280;36113;50.742;6.432;2023-02-18T07:28:01;147028.06;;;8.30;100.00
50226;BME280;36113;50.742;6.432;2023-02-18T07:30:26;147028.06;;;8.30;100.00
50226;BME280;36113;50.742;6.432;2023-02-18T07:32:51;147044.31;;;8.37;100.00
50226;BME280;36113;50.742;6.432;2023-02-18T07:35:17;147014.31;;;8.24;100.00
50226;BME280;36113;50.742;6.432;2023-02-18T07:37:46;147045.59;;;8.37;100.00
50226;BME280;36113;50.742;6.432;2023-02-18T07:40:14;146909.31;;;7.81;100.00
50226;BME280;36113;50.742;6.432;2023-02-18T07:42:40;147045.59;;;8.37;100.00
50226;BME280;36113;50.742;6.432;2023-02-18T07:45:06;147051.81;;;8.40;100.00
50226;BME280;36113;50.742;6.432;2023-02-18T07:47:31;147059.38;;;8.43;100.00
50226;BME280;36113;50.742;6.432;2023-02-18T07:49:57;147006.78;;;8.21;100.00
50226;BME280;36113;50.742;6.432;2023-02-18T07:52:22;147041.84;;;8.36;100.00
50226;BME280;36113;50.742;6.432;2023-02-18T07:54:47;147026.81;;;8.30;100.00
50226;BME280;36113;50.742;6.432;2023-02-18T07:57:13;147033.09;;;8.32;100.00
50226;BME280;36113;50.742;6.432;2023-02-18T07:59:39;146974.31;;;8.08;100.00
50226;BME280;36113;50.742;6.432;2023-02-18T08:02:04;147013.06;;;8.24;100.00
50226;BME280;36113;50.742;6.432;2023-02-18T08:04:31;147013.06;;;8.24;100.00
50226;BME280;36113;50.742;6.432;2023-02-18T08:06:56;147003.03;;;8.20;100.00
50226;BME280;36113;50.742;6.432;2023-02-18T08:09:22;146995.56;;;8.17;100.00
50226;BME280;36113;50.742;6.432;2023-02-18T08:11:47;146978.03;;;8.10;100.00
50226;BME280;36113;50.742;6.432;2023-02-18T08:14:12;146999.34;;;8.18;100.00
50226;BME280;36113;50.742;6.432;2023-02-18T08:16:38;147015.53;;;8.25;100.00
50226;BME280;36113;50.742;6.432;2023-02-18T08:19:03;147021.81;;;8.27;100.00
50226;BME280;36113;50.742;6.432;2023-02-18T08:21:29;146966.81;;;8.05;100.00
50226;BME280;36113;50.742;6.432;2023-02-18T08:23:56;147021.81;;;8.27;100.00
50226;BME280;36113;50.742;6.432;2023-02-18T08:26:22;146990.53;;;8.15;100.00
50226;BME280;36113;50.742;6.432;2023-02-18T08:28:48;147038.09;;;8.34;100.00
50226;BME280;36113;50.742;6.432;2023-02-18T08:31:21;147030.56;;;8.31;100.00
50226;BME280;36113;50.742;6.432;2023-02-18T08:33:47;147020.59;;;8.27;100.00
50226;BME280;36113;50.742;6.432;2023-02-18T08:36:13;147080.63;;;8.52;100.00
50226;BME280;36113;50.742;6.432;2023-02-18T08:38:38;147085.63;;;8.54;100.00
50226;BME280;36113;50.742;6.432;2023-02-18T08:41:06;147088.16;;;8.55;100.00
50226;BME280;36113;50.742;6.432;2023-02-18T08:43:32;147075.66;;;8.50;100.00
50226;BME280;36113;50.742;6.432;2023-02-18T08:45:58;147083.16;;;8.53;100.00
50226;BME280;36113;50.742;6.432;2023-02-18T08:48:24;147085.63;;;8.54;100.00
50226;BME280;36113;50.742;6.432;2023-02-18T08:50:50;147046.81;;;8.38;100.00
50226;BME280;36113;50.742;6.432;2023-02-18T08:53:15;147026.81;;;8.30;100.00
50226;BME280;36113;50.742;6.432;2023-02-18T08:55:41;147046.81;;;8.38;100.00
50226;BME280;36113;50.742;6.432;2023-02-18T08:58:07;147066.91;;;8.46;100.00
50226;BME280;36113;50.742;6.432;2023-02-18T09:00:32;147066.91;;;8.46;100.00
50226;BME280;36113;50.742;6.432;2023-02-18T09:02:58;147060.63;;;8.43;100.00
50226;BME280;36113;50.742;6.432;2023-02-18T09:05:23;147064.38;;;8.45;100.00
50226;BME280;36113;50.742;6.432;2023-02-18T09:07:49;147043.06;;;8.36;100.00
50226;BME280;36113;50.742;6.432;2023-02-18T09:10:14;147071.88;;;8.48;100.00
50226;BME280;36113;50.742;6.432;2023-02-18T09:12:39;147066.91;;;8.46;100.00
50226;BME280;36113;50.742;6.432;2023-02-18T09:15:05;147090.63;;;8.56;100.00
50226;BME280;36113;50.742;6.432;2023-02-18T09:17:30;147073.13;;;8.49;100.00
50226;BME280;36113;50.742;6.432;2023-02-18T09:19:56;147104.41;;;8.61;100.00
50226;BME280;36113;50.742;6.432;2023-02-18T09:22:21;147128.16;;;8.71;100.00
50226;BME280;36113;50.742;6.432;2023-02-18T09:24:46;147143.19;;;8.77;100.00
50226;BME280;36113;50.742;6.432;2023-02-18T09:27:12;147185.72;;;8.95;100.00
50226;BME280;36113;50.742;6.432;2023-02-18T09:29:38;147211.97;;;9.06;100.00
50226;BME280;36113;50.742;6.432;2023-02-18T09:32:04;147237.00;;;9.16;100.00
50226;BME280;36113;50.742;6.432;2023-02-18T09:34:30;147248.25;;;9.20;100.00
50226;BME280;36113;50.742;6.432;2023-02-18T09:36:55;147204.50;;;9.03;100.00
50226;BME280;36113;50.742;6.432;2023-02-18T09:39:20;147229.53;;;9.13;100.00
50226;BME280;36113;50.742;6.432;2023-02-18T09:41:47;147210.72;;;9.05;100.00
50226;BME280;36113;50.742;6.432;2023-02-18T09:44:22;147156.94;;;8.83;100.00
50226;BME280;36113;50.742;6.432;2023-02-18T09:47:02;147205.72;;;9.03;100.00
50226;BME280;36113;50.742;6.432;2023-02-18T09:49:57;147189.47;;;8.96;100.00
50226;BME280;36113;50.742;6.432;2023-02-18T09:52:28;147201.97;;;9.01;100.00
50226;BME280;36113;50.742;6.432;2023-02-18T09:54:56;147217.00;;;9.08;100.00
50226;BME280;36113;50.742;6.432;2023-02-18T09:57:25;147178.19;;;8.92;100.00
50226;BME280;36113;50.742;6.432;2023-02-18T10:00:03;147233.22;;;9.14;100.00
50226;BME280;36113;50.742;6.432;2023-02-18T10:02:30;147259.53;;;9.25;100.00
50226;BME280;36113;50.742;6.432;2023-02-18T10:04:56;147242.03;;;9.18;100.00
50226;BME280;36113;50.742;6.432;2023-02-18T10:07:27;147245.75;;;9.19;100.00
50226;BME280;36113;50.742;6.432;2023-02-18T10:09:55;147225.75;;;9.11;100.00
50226;BME280;36113;50.742;6.432;2023-02-18T10:12:23;147240.75;;;9.17;100.00
50226;BME280;36113;50.742;6.432;2023-02-18T10:14:54;147262.00;;;9.26;100.00
50226;BME280;36113;50.742;6.432;2023-02-18T10:17:22;147282.03;;;9.34;100.00
50226;BME280;36113;50.742;6.432;2023-02-18T10:19:50;147274.53;;;9.31;100.00
50226;BME280;36113;50.742;6.432;2023-02-18T10:22:17;147243.28;;;9.18;100.00
50226;BME280;36113;50.742;6.432;2023-02-18T10:24:47;147233.22;;;9.14;100.00
50226;BME280;36113;50.742;6.432;2023-02-18T10:27:23;147189.47;;;8.96;100.00
50226;BME280;36113;50.742;6.432;2023-02-18T10:29:49;147237.00;;;9.16;100.00
50226;BME280;36113;50.742;6.432;2023-02-18T10:32:27;147254.50;;;9.23;100.00
50226;BME280;36113;50.742;6.432;2023-02-18T10:37:42;147273.28;;;9.31;100.00
50226;BME280;36113;50.742;6.432;2023-02-18T10:50:27;147354.63;;;9.64;100.00
50226;BME280;36113;50.742;6.432;2023-02-18T10:52:58;147363.38;;;9.68;100.00
50226;BME280;36113;50.742;6.432;2023-02-18T10:55:46;147368.44;;;9.70;100.00
50226;BME280;36113;50.742;6.432;2023-02-18T10:58:24;147312.06;;;9.47;100.00
50226;BME280;36113;50.742;6.432;2023-02-18T11:00:50;147317.06;;;9.49;100.00
50226;BME280;36113;50.742;6.432;2023-02-18T11:03:19;147327.13;;;9.53;100.00
50226;BME280;36113;50.742;6.432;2023-02-18T11:05:47;147339.63;;;9.58;100.00
50226;BME280;36113;50.742;6.432;2023-02-18T11:08:24;147345.88;;;9.61;100.00
50226;BME280;36113;50.742;6.432;2023-02-18T11:10:53;147292.03;;;9.38;100.00
50226;BME280;36113;50.742;6.432;2023-02-18T11:13:25;147317.06;;;9.49;100.00
50226;BME280;36113;50.742;6.432;2023-02-18T11:16:01;147283.28;;;9.35;100.00
50226;BME280;36113;50.742;6.432;2023-02-18T11:18:31;147308.31;;;9.45;100.00
50226;BME280;36113;50.742;6.432;2023-02-18T11:21:03;147318.34;;;9.49;100.00
50226;BME280;36113;50.742;6.432;2023-02-18T11:23:29;147302.09;;;9.43;100.00
50226;BME280;36113;50.742;6.432;2023-02-18T11:26:15;147334.63;;;9.56;100.00
50226;BME280;36113;50.742;6.432;2023-02-18T11:28:49;147328.34;;;9.53;100.00
50226;BME280;36113;50.742;6.432;2023-02-18T11:31:25;147289.56;;;9.37;100.00
50226;BME280;36113;50.742;6.432;2023-02-18T11:33:54;147324.59;;;9.52;100.00
50226;BME280;36113;50.742;6.432;2023-02-18T11:36:23;147287.03;;;9.36;100.00
50226;BME280;36113;50.742;6.432;2023-02-18T11:38:55;147349.63;;;9.62;100.00
50226;BME280;36113;50.742;6.432;2023-02-18T11:41:39;147237.00;;;9.16;100.00
50226;BME280;36113;50.742;6.432;2023-02-18T11:44:19;147342.09;;;9.59;100.00
50226;BME280;36113;50.742;6.432;2023-02-18T11:47:01;147300.84;;;9.42;100.00
50226;BME280;36113;50.742;6.432;2023-02-18T11:49:28;147334.63;;;9.56;100.00
50226;BME280;36113;50.742;6.432;2023-02-18T11:51:54;147313.34;;;9.47;100.00
50226;BME280;36113;50.742;6.432;2023-02-18T11:54:28;147257.03;;;9.24;100.00
50226;BME280;36113;50.742;6.432;2023-02-18T11:59:25;147298.31;;;9.41;100.00
50226;BME280;36113;50.742;6.432;2023-02-18T12:07:19;147278.28;;;9.33;100.00
50226;BME280;36113;50.742;6.432;2023-02-18T12:09:52;147249.50;;;9.21;100.00
50226;BME280;36113;50.742;6.432;2023-02-18T12:12:28;147327.13;;;9.53;100.00
50226;BME280;36113;50.742;6.432;2023-02-18T12:14:55;147340.88;;;9.58;100.00
50226;BME280;36113;50.742;6.432;2023-02-18T12:17:48;147349.63;;;9.62;100.00
50226;BME280;36113;50.742;6.432;2023-02-18T12:26:00;147338.41;;;9.57;100.00
50226;BME280;36113;50.742;6.432;2023-02-18T12:28:33;147359.66;;;9.66;100.00
50226;BME280;36113;50.742;6.432;2023-02-18T12:45:44;147318.34;;;9.49;100.00
50226;BME280;36113;50.742;6.432;2023-02-18T12:53:57;147239.50;;;9.17;100.00
50226;BME280;36113;50.742;6.432;2023-02-18T12:59:07;147282.03;;;9.34;100.00
50226;BME280;36113;50.742;6.432;2023-02-18T13:01:42;147232.00;;;9.14;100.00
50226;BME280;36113;50.742;6.432;2023-02-18T13:04:23;147284.56;;;9.35;100.00
50226;BME280;36113;50.742;6.432;2023-02-18T13:07:07;147280.81;;;9.34;100.00
50226;BME280;36113;50.742;6.432;2023-02-18T13:09:58;147283.28;;;9.35;100.00
50226;BME280;36113;50.742;6.432;2023-02-18T13:12:36;147289.56;;;9.37;100.00
50226;BME280;36113;50.742;6.432;2023-02-18T13:15:15;147279.53;;;9.33;100.00
50226;BME280;36113;50.742;6.432;2023-02-18T13:17:42;147309.59;;;9.46;100.00
50226;BME280;36113;50.742;6.432;2023-02-18T13:20:24;147288.31;;;9.37;100.00
50226;BME280;36113;50.742;6.432;2023-02-18T13:22:53;147293.31;;;9.39;100.00
50226;BME280;36113;50.742;6.432;2023-02-18T13:25:20;147263.31;;;9.27;100.00
50226;BME280;36113;50.742;6.432;2023-02-18T13:33:49;147333.34;;;9.55;100.00
50226;BME280;36113;50.742;6.432;2023-02-18T13:39:17;147327.13;;;9.53;100.00
50226;BME280;36113;50.742;6.432;2023-02-18T13:41:46;147324.59;;;9.52;100.00
50226;BME280;36113;50.742;6.432;2023-02-18T13:46:57;147244.50;;;9.19;100.00
50226;BME280;36113;50.742;6.432;2023-02-18T13:49:30;147300.84;;;9.42;100.00
50226;BME280;36113;50.742;6.432;2023-02-18T13:51:57;147292.03;;;9.38;100.00
50226;BME280;36113;50.742;6.432;2023-02-18T13:54:27;147240.75;;;9.17;100.00
50226;BME280;36113;50.742;6.432;2023-02-18T13:56:58;147277.06;;;9.32;100.00
50226;BME280;36113;50.742;6.432;2023-02-18T13:59:41;147334.63;;;9.56;100.00
50226;BME280;36113;50.742;6.432;2023-02-18T14:09:44;147313.34;;;9.47;100.00
50226;BME280;36113;50.742;6.432;2023-02-18T14:12:35;147327.13;;;9.53;100.00
50226;BME280;36113;50.742;6.432;2023-02-18T14:33:29;147268.28;;;9.29;100.00
50226;BME280;36113;50.742;6.432;2023-02-18T14:39:11;147313.34;;;9.47;100.00
50226;BME280;36113;50.742;6.432;2023-02-18T14:49:36;147309.59;;;9.46;100.00
50226;BME280;36113;50.742;6.432;2023-02-18T14:52:05;147193.22;;;8.98;100.00
50226;BME280;36113;50.742;6.432;2023-02-18T14:54:35;147278.28;;;9.33;100.00
50226;BME280;36113;50.742;6.432;2023-02-18T14:57:11;147224.47;;;9.11;100.00
50226;BME280;36113;50.742;6.432;2023-02-18T14:59:42;147268.28;;;9.29;100.00
50226;BME280;36113;50.742;6.432;2023-02-18T15:02:36;147264.53;;;9.27;100.00
50226;BME280;36113;50.742;6.432;2023-02-18T15:05:36;147247.03;;;9.20;100.00
50226;BME280;36113;50.742;6.432;2023-02-18T15:08:05;147129.44;;;8.72;100.00
50226;BME280;36113;50.742;6.432;2023-02-18T15:10:44;147139.44;;;8.76;100.00
50226;BME280;36113;50.742;6.432;2023-02-18T15:13:17;147151.94;;;8.81;100.00
50226;BME280;36113;50.742;6.432;2023-02-18T15:15:47;147188.22;;;8.96;100.00
50226;BME280;36113;50.742;6.432;2023-02-18T15:18:42;147179.47;;;8.92;100.00